新東京国際空港の過去48時間の天気

新東京国際空港 (Tokyo/New Tokyo Intl)

現在時刻: 8/17 00:35 JST (8/16 15:35 UTC) 以下の時間は現地時間です。

過去48時間のMETAR気象情報
時間 風向 風速(m/s) 視程 気温(℃) 湿度(%) 気圧(hPa) 天気現象
17 00:00 西北西 3 10km以上 25 89 1004 弱いしゅう雨
16 23:30 西南西 5 6000m 27 89 1004 弱いしゅう雨
16 23:00 南西 6 10km以上 27 89 1004 弱いしゅう雨
16 22:30 南西 6 10km以上 27 89 1004
16 22:00 南西 6 10km以上 27 84 1004
16 21:30 南西 6 10km以上 27 84 1005
16 21:00 南西 4 10km以上 27 84 1004
16 20:30 南西 4 10km以上 27 84 1004 弱いしゅう雨
16 20:00 南西 5 10km以上 28 79 1004 弱いしゅう雨
16 19:30 南西 7 10km以上 28 79 1003 弱いしゅう雨
16 19:00 南西 7 10km以上 28 79 1003
16 18:33 南西 8 10km以上 28 79 1004
16 18:30 南西 8 10km以上 28 79 1004
16 18:23 南西 8 10km以上 28 79 1004
16 18:00 南西 7 10km以上 29 74 1004
16 17:43 南西 8 10km以上 29 70 1004
16 17:30 南西 7 10km以上 29 70 1004
16 17:01 南西 9 10km以上 29 70 1003
16 17:00 南西 9 10km以上 29 70 1003
16 16:46 南西 8 10km以上 29 70 1003
16 16:30 南西 8 10km以上 29 70 1003
16 16:00 南西 8 10km以上 30 66 1003
16 15:30 南西 9 10km以上 30 66 1003
16 15:00 南西 8 10km以上 30 66 1003
16 14:30 南西 9 10km以上 31 62 1004
16 14:00 南西 10 10km以上 31 62 1004
16 13:30 南西 11 10km以上 31 59 1004
16 13:00 南西 12 10km以上 32 56 1004 周辺で高い風塵
16 12:30 南南西 11 10km以上 32 52 1005
16 12:00 南西 11 10km以上 32 56 1005
16 11:30 南西 9 10km以上 32 56 1006
16 11:17 南西 11 10km以上 32 52 1006 周辺で高い風塵
16 11:00 南西 10 10km以上 32 52 1006
16 10:30 南南西 9 10km以上 32 56 1006
16 10:00 南西 9 10km以上 31 55 1007
16 09:30 南西 9 10km以上 31 59 1007
16 09:00 南西 9 10km以上 31 55 1007
16 08:30 南西 9 10km以上 30 62 1007
16 08:14 南南西 8 10km以上 30 66 1007
16 08:00 南南西 8 10km以上 29 70 1007
16 07:50 南南西 8 10km以上 29 70 1007
16 07:30 南南西 8 10km以上 29 70 1007
16 07:00 南南西 6 10km以上 28 74 1008
16 06:30 南南西 6 10km以上 27 79 1008
16 06:00 5 10km以上 27 79 1008
16 05:30 南南西 5 10km以上 26 84 1008
16 05:00 南南西 5 10km以上 26 84 1008
16 04:30 4 10km以上 26 84 1009
16 04:00 5 10km以上 26 89 1009
16 03:30 南南西 5 10km以上 26 89 1009
16 03:00 南南西 5 10km以上 26 89 1009
16 02:30 南南西 4 10km以上 26 89 1009
16 02:00 南南西 4 10km以上 26 89 1009
16 01:30 南南西 5 10km以上 26 89 1009
16 01:00 南南西 5 10km以上 27 84 1009
16 00:30 南南西 5 10km以上 27 84 1010
16 00:00 南南西 5 10km以上 26 89 1010
15 23:30 5 10km以上 26 89 1011
15 23:00 5 10km以上 27 84 1011
15 22:30 南南西 5 10km以上 27 84 1011
15 22:00 南南西 5 10km以上 27 84 1012
15 21:30 南南西 4 10km以上 27 79 1012
15 21:00 南南西 4 10km以上 27 79 1012
15 20:30 南南西 5 10km以上 27 79 1012
15 20:00 南南西 5 10km以上 27 79 1012
15 19:30 南南西 5 10km以上 28 74 1012
15 19:00 南南西 5 10km以上 28 74 1012
15 18:30 南南西 5 10km以上 28 79 1011
15 18:00 6 10km以上 29 74 1011
15 17:30 南南西 6 10km以上 30 75 1011
15 17:00 南南西 7 10km以上 30 70 1011
15 16:30 南南西 6 10km以上 30 75 1011
15 16:00 南南西 7 10km以上 31 66 1012
15 15:30 南南西 7 10km以上 31 70 1012
15 15:00 6 10km以上 31 70 1012
15 14:30 南南西 6 10km以上 32 63 1012
15 14:00 南南西 5 10km以上 32 63 1012
15 13:30 南西 7 10km以上 32 63 1013
15 13:00 南西 7 10km以上 32 63 1013
15 12:30 南南西 7 10km以上 32 63 1013
15 12:00 南西 5 10km以上 32 67 1014
15 11:30 南西 7 10km以上 32 63 1014
15 11:00 南南西 5 10km以上 32 67 1014
15 10:30 南西 5 10km以上 32 63 1014
15 10:00 南南西 7 10km以上 32 63 1014
15 09:30 南西 7 10km以上 31 70 1015
15 09:00 南南西 6 10km以上 31 70 1015
15 08:30 南南西 6 10km以上 30 75 1015
15 08:00 南西 7 10km以上 30 75 1015
15 07:30 南南西 7 10km以上 29 79 1015
15 07:00 南南西 6 10km以上 29 79 1015
15 06:30 南南西 5 10km以上 28 84 1015
15 06:00 南南西 3 10km以上 27 84 1015
15 05:30 3 10km以上 26 89 1014
15 05:00 3 10km以上 26 89 1014
15 04:30 3 10km以上 26 89 1014
15 04:00 南南西 3 10km以上 26 89 1014
15 03:30 南南西 4 10km以上 26 89 1013
15 03:00 南南西 4 10km以上 26 89 1013
15 02:30 南南西 4 10km以上 26 89 1013
15 02:00 南南西 3 10km以上 26 89 1013
15 01:30 南南西 3 10km以上 26 89 1013
15 01:00 南南西 4 10km以上 27 84 1014
RJAA 161500Z 29006KT 260V330 9999 -SHRA FEW015 BKN030 25/23 Q1004 NOSIG RMK 1CU015 7CU030 A2966
RJAA 161430Z 25010KT 220V290 6000 -SHRA FEW013 BKN015 27/25 Q1004 NOSIG RMK 1CU013 7CU015 A2966
RJAA 161400Z 23011KT 9999 -SHRA SCT015 BKN020 27/25 Q1004 BECMG 27010KT RMK 3CU015 6CU020 A2966
RJAA 161330Z 23011KT 9999 FEW015 SCT020 BKN030 27/25 Q1004 BECMG 27008KT
RJAA 161300Z 23012KT 180V250 9999 FEW015 SCT020 BKN035 27/24 Q1004 BECMG 27008KT RMK 1CU015 3CU020 7CU035 A2967
RJAA 161230Z 23011KT 9999 FEW020 SCT035 BKN/// 27/24 Q1005 BECMG 27008KT
RJAA 161200Z 22008KT 190V260 9999 FEW025 SCT030 BKN/// 27/24 Q1004 BECMG 27008KT RMK 1CU025 3CU030 A2967
RJAA 161130Z 23008KT 190V270 9999 -SHRA FEW025 BKN150 27/24 Q1004 BECMG 27008KT
RJAA 161100Z 22009KT 180V250 9999 -SHRA FEW020 BKN150 28/24 Q1004 NOSIG RMK 1CU020 7AC150 A2967
RJAA 161030Z 22014KT 9999 -SHRA FEW020 SCT120 BKN160 28/24 Q1003 TEMPO 22015G25KT
RJAA 161000Z 22014G27KT 9999 FEW020 SCT160 BKN180 28/24 Q1003 NOSIG RMK 1CU020 4AC160 7AC180 A2964
RJAA 160933Z 23015G25KT 9999 FEW020 SCT180 BKN/// 28/24 Q1004 RMK 1CU020 3AC180 A2966
RJAA 160930Z 23015KT 9999 FEW020 SCT180 BKN/// 28/24 Q1004 TEMPO 22015G25KT RMK 1CU020 3AC180 A2966
RJAA 160923Z 23015G27KT 9999 FEW020 SCT180 BKN/// 28/24 Q1004 RMK 1CU020 3AC180 A2966
RJAA 160900Z 23013KT 180V270 9999 FEW020 BKN/// 29/24 Q1004 WS R16L TEMPO 22015G25KT
RJAA 160843Z 22015G25KT 200V260 9999 FEW020 BKN/// 29/23 Q1004 RMK 1CU020 A2966
RJAA 160830Z 22014KT 190V250 9999 FEW020 BKN/// 29/23 Q1004 TEMPO 22015G25KT
RJAA 160801Z 22018G30KT 190V250 9999 FEW020 BKN/// 29/23 Q1003 RMK 1CU020 A2964
RJAA 160800Z 22017KT 190V250 9999 FEW020 BKN/// 29/23 Q1003 TEMPO 22017G27KT RMK 1CU020 A2964
RJAA 160746Z 22015G25KT 9999 FEW020 BKN/// 29/23 Q1003 WS R16R WS R16L RMK 1CU020 A2964
RJAA 160730Z 22015KT 190V250 9999 FEW020 BKN/// 29/23 Q1003 WS R16R WS R16L TEMPO 22015G25KT
RJAA 160700Z 22015G32KT 9999 FEW020 BKN/// 30/23 Q1003 WS R16R WS R16L NOSIG RMK 1CU020 A2964
RJAA 160630Z 22017G30KT 9999 FEW020 BKN/// 30/23 Q1003 WS R16R WS R16L NOSIG
RJAA 160600Z 22016G29KT 190V260 9999 FEW020 BKN/// 30/23 Q1003 WS R16L NOSIG
RJAA 160530Z 23018G32KT 190V260 9999 FEW020 BKN/// 31/23 Q1004 WS R16R WS R16L NOSIG
RJAA 160500Z 22020G35KT 9999 FEW020 BKN/// 31/23 Q1004 WS R16R WS R16L NOSIG
RJAA 160430Z 22022G33KT 9999 FEW020 SCT160 BKN/// 31/22 Q1004 WS R16R WS R16L NOSIG
RJAA 160400Z 22023G35KT 180V250 9999 VCBLDU FEW020 SCT160 BKN/// 32/22 Q1004 WS R16R WS R16L NOSIG RMK 1CU020 4AC160 A2967 MOD TURB OBS AT 0353Z ON DEP COURSE RWY16R 500FT AND BLW IN CMB A320 JJP305 BLDU S-SW
RJAA 160330Z 21022G34KT 9999 FEW020 BKN/// 32/21 Q1005 WS R16R NOSIG
RJAA 160300Z 22021G34KT 190V260 9999 FEW020 BKN/// 32/22 Q1005 WS R16R NOSIG
RJAA 160230Z 22018G32KT 9999 FEW020 BKN/// 32/22 Q1006 WS R16R WS R16L NOSIG
RJAA 160217Z 23021G34KT 190V260 9999 VCBLDU FEW020 BKN/// 32/21 Q1006 WS R16R RMK 1CU020 A2971 BLDU S-SW
RJAA 160200Z 22019G32KT 180V250 9999 FEW020 BKN/// 32/21 Q1006 WS R16L NOSIG RMK 1CU020 A2973
RJAA 160130Z 21018G30KT 9999 FEW020 BKN/// 32/22 Q1006 WS R16R WS R16L NOSIG
RJAA 160100Z 22017G30KT 180V250 9999 FEW020 BKN/// 31/21 Q1007 WS R16L NOSIG
RJAA 160030Z 22018G29KT 190V260 9999 FEW020 BKN/// 31/22 Q1007 WS R16R WS R16L NOSIG RMK 1CU020 A2974
RJAA 160000Z 22017G28KT 190V260 9999 FEW030 BKN/// 31/21 Q1007 NOSIG
RJAA 152330Z 22018G29KT 190V250 9999 FEW030 BKN/// 30/22 Q1007 NOSIG
RJAA 152314Z 21015G26KT 180V260 9999 FEW030 BKN/// 30/23 Q1007 RMK 1CU030 A2975
RJAA 152300Z 21015KT 170V240 9999 FEW030 SCT/// 29/23 Q1007 TEMPO 21018G30KT RMK 1CU030 A2975
RJAA 152250Z 21016G26KT 170V240 9999 FEW030 SCT/// 29/23 Q1007 RMK 1CU030 A2975
RJAA 152230Z 20015KT 170V240 9999 FEW030 SCT/// 29/23 Q1007 TEMPO FM2300 20016G27KT RMK 1CU030 A2976
RJAA 152200Z 20012KT 170V230 9999 FEW015 SCT/// 28/23 Q1008 TEMPO FM2300 20016G27KT RMK 1CU015 A2977
RJAA 152130Z 20012KT 160V230 9999 FEW015 27/23 Q1008 NOSIG RMK 1CU015 A2977
RJAA 152100Z 19010KT 9999 FEW015 SCT/// 27/23 Q1008 NOSIG RMK 1CU015 A2978
RJAA 152030Z 20010KT 9999 FEW015 BKN/// 26/23 Q1008 NOSIG
RJAA 152000Z 20009KT 9999 FEW015 SCT/// 26/23 Q1008 NOSIG RMK 1CU015 A2979
RJAA 151930Z 19008KT 160V220 9999 FEW015 SCT140 BKN/// 26/23 Q1009 NOSIG
RJAA 151900Z 19010KT 160V220 9999 FEW015 BKN140 BKN/// 26/24 Q1009 NOSIG RMK 2CU015 5AC140 A2979
RJAA 151830Z 20009KT 170V230 9999 FEW015 BKN020 BKN/// 26/24 Q1009 NOSIG
RJAA 151800Z 20009KT 9999 FEW015 SCT/// 26/24 Q1009 NOSIG RMK 1CU015 A2980
RJAA 151730Z 20008KT 9999 FEW015 SCT/// 26/24 Q1009 NOSIG
RJAA 151700Z 20008KT 9999 FEW030 BKN/// 26/24 Q1009 NOSIG
RJAA 151630Z 20010KT 9999 FEW030 BKN/// 26/24 Q1009 NOSIG RMK 1CU030 A2982
RJAA 151600Z 20010KT 9999 FEW030 SCT150 27/24 Q1009 NOSIG RMK 1CU030 3AC150 A2982
RJAA 151530Z 20010KT 9999 FEW030 SCT/// 27/24 Q1010 NOSIG
RJAA 151500Z 20009KT 160V230 9999 FEW025 BKN/// 26/24 Q1010 NOSIG RMK 1CU025 A2984
RJAA 151430Z 19009KT 9999 FEW025 BKN/// 26/24 Q1011 NOSIG
RJAA 151400Z 19009KT 160V230 9999 FEW025 BKN/// 27/24 Q1011 NOSIG RMK 1CU025 A2987
RJAA 151330Z 20009KT 160V230 9999 FEW025 BKN/// 27/24 Q1011 NOSIG
RJAA 151300Z 20009KT 170V230 9999 FEW025 BKN/// 27/24 Q1012 NOSIG RMK 1CU025 A2989
RJAA 151230Z 20008KT 170V230 9999 FEW025 BKN/// 27/23 Q1012 NOSIG
RJAA 151200Z 20008KT 170V230 9999 FEW025 BKN/// 27/23 Q1012 NOSIG RMK 1CU025 A2990
RJAA 151130Z 20010KT 170V230 9999 FEW025 BKN/// 27/23 Q1012 NOSIG
RJAA 151100Z 20010KT 170V230 9999 FEW025 BKN/// 27/23 Q1012 NOSIG
RJAA 151030Z 20010KT 9999 FEW025 FEW035CB BKN/// 28/23 Q1012 NOSIG
RJAA 151000Z 20009KT 160V230 9999 FEW025 FEW035CB BKN/// 28/23 Q1012 NOSIG
RJAA 150930Z 20009KT 9999 FEW025 BKN/// 28/24 Q1011 NOSIG
RJAA 150900Z 19011KT 9999 FEW025 BKN/// 29/24 Q1011 NOSIG
RJAA 150830Z 20012KT 160V230 9999 FEW025 BKN/// 30/25 Q1011 NOSIG RMK 1CU025 A2987
RJAA 150800Z 20013G24KT 180V250 9999 FEW025 BKN/// 30/24 Q1011 WS R16L NOSIG
RJAA 150730Z 20012KT 160V230 9999 FEW025 BKN/// 30/25 Q1011 NOSIG
RJAA 150700Z 20013KT 160V230 9999 FEW025 BKN/// 31/24 Q1012 NOSIG RMK 1CU025 A2988
RJAA 150630Z 20014KT 150V220 9999 FEW030 BKN/// 31/25 Q1012 NOSIG
RJAA 150600Z 19012KT 9999 FEW030 BKN/// 31/25 Q1012 WS R16L NOSIG RMK 1CU030 A2990
RJAA 150530Z 21012KT 160V240 9999 FEW030 BKN/// 32/24 Q1012 NOSIG
RJAA 150500Z 21010KT 180V240 9999 FEW035 BKN/// 32/24 Q1012 NOSIG RMK 2CU035 A2991
RJAA 150430Z 23013KT 180V250 9999 FEW035 BKN/// 32/24 Q1013 NOSIG
RJAA 150400Z 22013KT 9999 FEW030 BKN/// 32/24 Q1013 NOSIG
RJAA 150330Z 21014KT 170V240 9999 FEW030 BKN/// 32/24 Q1013 NOSIG
RJAA 150300Z 22009KT 180V290 9999 FEW030 BKN/// 32/25 Q1014 NOSIG
RJAA 150230Z 22014KT 9999 FEW030 BKN/// 32/24 Q1014 NOSIG RMK 1CU030 A2995
RJAA 150200Z 21010KT 180V260 9999 FEW030 BKN/// 32/25 Q1014 NOSIG RMK 1CU030 A2996
RJAA 150130Z 22010G23KT 180V250 9999 FEW030 BKN/// 32/24 Q1014 NOSIG
RJAA 150100Z 21013KT 9999 FEW025 BKN/// 32/24 Q1014 WS R16R WS R16L NOSIG RMK 1CU025 A2997
RJAA 150030Z 22013KT 190V250 9999 FEW025 BKN/// 31/25 Q1015 NOSIG RMK 1CU025 A2997
RJAA 150000Z 21011G22KT 180V240 9999 FEW020 BKN/// 31/25 Q1015 NOSIG RMK 1CU020 A2997
RJAA 142330Z 21011KT 170V250 9999 FEW020 BKN/// 30/25 Q1015 NOSIG
RJAA 142300Z 22013KT 180V250 9999 FEW015 BKN/// 30/25 Q1015 NOSIG
RJAA 142230Z 21013KT 9999 FEW015 BKN/// 29/25 Q1015 NOSIG RMK 1CU015 A2998
RJAA 142200Z 21011KT 170V250 9999 FEW015 BKN/// 29/25 Q1015 NOSIG
RJAA 142130Z 21010KT 160V230 9999 FEW030 SCT/// 28/25 Q1015 NOSIG
RJAA 142100Z 20006KT 170V230 9999 FEW030 SCT/// 27/24 Q1015 NOSIG RMK 1CU030 A2997
RJAA 142030Z 19006KT 160V220 9999 FEW030 BKN/// 26/24 Q1014 NOSIG
RJAA 142000Z 19006KT 9999 FEW030 BKN/// 26/24 Q1014 NOSIG
RJAA 141930Z 19006KT 9999 FEW030 SCT/// 26/24 Q1014 NOSIG
RJAA 141900Z 20006KT 170V240 9999 FEW030 SCT/// 26/24 Q1014 NOSIG RMK 1CU030 A2994
RJAA 141830Z 20008KT 170V230 9999 FEW030 SCT/// 26/24 Q1013 NOSIG
RJAA 141800Z 21007KT 170V240 9999 FEW030 26/24 Q1013 NOSIG RMK 1CU030 A2994
RJAA 141730Z 21008KT 170V240 9999 FEW030 26/24 Q1013 NOSIG RMK 1CU030 A2994
RJAA 141700Z 21006KT 9999 FEW030 26/24 Q1013 NOSIG RMK 1CU030 A2994
RJAA 141630Z 20006KT 9999 FEW030 26/24 Q1013 NOSIG RMK 1CU030 A2994
RJAA 141600Z 21007KT 9999 FEW030 27/24 Q1014 NOSIG RMK 1CU030 A2994